sensor_id;sensor_type;location;lat;lon;timestamp;P1;durP1;ratioP1;P2;durP2;ratioP2
36291;SDS011;22327;51.208;6.418;2023-12-20T00:01:58;20.45;;;7.93;;
36291;SDS011;22327;51.208;6.418;2023-12-20T00:04:58;17.80;;;7.18;;
36291;SDS011;22327;51.208;6.418;2023-12-20T00:07:59;20.63;;;8.35;;
36291;SDS011;22327;51.208;6.418;2023-12-20T00:10:59;19.73;;;8.10;;
36291;SDS011;22327;51.208;6.418;2023-12-20T00:14:00;17.48;;;6.78;;
36291;SDS011;22327;51.208;6.418;2023-12-20T00:17:00;18.50;;;6.70;;
36291;SDS011;22327;51.208;6.418;2023-12-20T00:20:01;19.52;;;6.80;;
36291;SDS011;22327;51.208;6.418;2023-12-20T00:23:01;19.38;;;6.57;;
36291;SDS011;22327;51.208;6.418;2023-12-20T00:26:03;21.92;;;7.00;;
36291;SDS011;22327;51.208;6.418;2023-12-20T00:29:03;17.88;;;7.80;;
36291;SDS011;22327;51.208;6.418;2023-12-20T00:32:04;24.80;;;8.43;;
36291;SDS011;22327;51.208;6.418;2023-12-20T00:35:04;24.40;;;9.98;;
36291;SDS011;22327;51.208;6.418;2023-12-20T00:38:05;23.20;;;12.10;;
36291;SDS011;22327;51.208;6.418;2023-12-20T00:41:07;30.25;;;12.68;;
36291;SDS011;22327;51.208;6.418;2023-12-20T00:44:07;23.05;;;11.60;;
36291;SDS011;22327;51.208;6.418;2023-12-20T00:47:08;21.27;;;9.90;;
36291;SDS011;22327;51.208;6.418;2023-12-20T00:50:08;22.90;;;10.95;;
36291;SDS011;22327;51.208;6.418;2023-12-20T00:53:09;21.52;;;10.73;;
36291;SDS011;22327;51.208;6.418;2023-12-20T00:56:10;21.83;;;9.85;;
36291;SDS011;22327;51.208;6.418;2023-12-20T00:59:10;20.27;;;9.68;;
36291;SDS011;22327;51.208;6.418;2023-12-20T01:02:11;18.00;;;8.77;;
36291;SDS011;22327;51.208;6.418;2023-12-20T01:05:11;22.98;;;10.10;;
36291;SDS011;22327;51.208;6.418;2023-12-20T01:08:12;18.88;;;8.73;;
36291;SDS011;22327;51.208;6.418;2023-12-20T01:11:12;17.77;;;8.30;;
36291;SDS011;22327;51.208;6.418;2023-12-20T01:14:13;19.88;;;8.40;;
36291;SDS011;22327;51.208;6.418;2023-12-20T01:17:13;18.20;;;7.93;;
36291;SDS011;22327;51.208;6.418;2023-12-20T01:20:14;13.82;;;7.38;;
36291;SDS011;22327;51.208;6.418;2023-12-20T01:23:14;14.48;;;7.90;;
36291;SDS011;22327;51.208;6.418;2023-12-20T01:26:15;19.13;;;8.43;;
36291;SDS011;22327;51.208;6.418;2023-12-20T01:29:15;21.10;;;7.90;;
36291;SDS011;22327;51.208;6.418;2023-12-20T01:32:16;23.85;;;8.55;;
36291;SDS011;22327;51.208;6.418;2023-12-20T01:35:17;25.13;;;8.25;;
36291;SDS011;22327;51.208;6.418;2023-12-20T01:38:17;15.75;;;7.65;;
36291;SDS011;22327;51.208;6.418;2023-12-20T01:41:18;15.70;;;6.50;;
36291;SDS011;22327;51.208;6.418;2023-12-20T01:44:19;21.38;;;6.85;;
36291;SDS011;22327;51.208;6.418;2023-12-20T01:47:19;17.42;;;5.25;;
36291;SDS011;22327;51.208;6.418;2023-12-20T01:50:21;16.98;;;4.50;;
36291;SDS011;22327;51.208;6.418;2023-12-20T01:53:23;16.65;;;4.65;;
36291;SDS011;22327;51.208;6.418;2023-12-20T01:56:25;20.15;;;4.90;;
36291;SDS011;22327;51.208;6.418;2023-12-20T01:59:27;15.18;;;4.30;;
36291;SDS011;22327;51.208;6.418;2023-12-20T02:02:29;10.68;;;3.40;;
36291;SDS011;22327;51.208;6.418;2023-12-20T02:05:31;16.48;;;3.35;;
36291;SDS011;22327;51.208;6.418;2023-12-20T02:08:32;15.77;;;3.67;;
36291;SDS011;22327;51.208;6.418;2023-12-20T02:11:32;13.98;;;3.88;;
36291;SDS011;22327;51.208;6.418;2023-12-20T02:14:35;13.55;;;3.45;;
36291;SDS011;22327;51.208;6.418;2023-12-20T02:17:36;10.35;;;2.85;;
36291;SDS011;22327;51.208;6.418;2023-12-20T02:20:38;9.65;;;2.72;;
36291;SDS011;22327;51.208;6.418;2023-12-20T02:23:38;19.00;;;3.10;;
36291;SDS011;22327;51.208;6.418;2023-12-20T02:26:39;13.45;;;2.97;;
36291;SDS011;22327;51.208;6.418;2023-12-20T02:29:40;16.70;;;3.35;;
36291;SDS011;22327;51.208;6.418;2023-12-20T02:32:41;23.25;;;2.85;;
36291;SDS011;22327;51.208;6.418;2023-12-20T02:35:41;16.48;;;2.95;;
36291;SDS011;22327;51.208;6.418;2023-12-20T02:38:42;15.18;;;3.38;;
36291;SDS011;22327;51.208;6.418;2023-12-20T02:41:42;13.30;;;2.75;;
36291;SDS011;22327;51.208;6.418;2023-12-20T02:44:43;21.08;;;4.60;;
36291;SDS011;22327;51.208;6.418;2023-12-20T02:47:43;17.35;;;4.13;;
36291;SDS011;22327;51.208;6.418;2023-12-20T02:50:45;9.93;;;3.22;;
36291;SDS011;22327;51.208;6.418;2023-12-20T02:53:48;16.17;;;3.70;;
36291;SDS011;22327;51.208;6.418;2023-12-20T02:56:48;16.05;;;4.40;;
36291;SDS011;22327;51.208;6.418;2023-12-20T02:59:49;16.27;;;4.32;;
36291;SDS011;22327;51.208;6.418;2023-12-20T03:02:49;11.82;;;3.45;;
36291;SDS011;22327;51.208;6.418;2023-12-20T03:05:50;15.75;;;3.45;;
36291;SDS011;22327;51.208;6.418;2023-12-20T03:08:50;13.40;;;3.78;;
36291;SDS011;22327;51.208;6.418;2023-12-20T03:11:51;12.02;;;3.55;;
36291;SDS011;22327;51.208;6.418;2023-12-20T03:14:51;16.88;;;4.15;;
36291;SDS011;22327;51.208;6.418;2023-12-20T03:17:52;9.25;;;3.90;;
36291;SDS011;22327;51.208;6.418;2023-12-20T03:20:52;16.90;;;4.35;;
36291;SDS011;22327;51.208;6.418;2023-12-20T03:23:53;15.93;;;3.75;;
36291;SDS011;22327;51.208;6.418;2023-12-20T03:26:53;22.45;;;4.50;;
36291;SDS011;22327;51.208;6.418;2023-12-20T03:29:54;17.05;;;4.03;;
36291;SDS011;22327;51.208;6.418;2023-12-20T03:32:54;17.05;;;4.20;;
36291;SDS011;22327;51.208;6.418;2023-12-20T03:35:55;18.75;;;3.90;;
36291;SDS011;22327;51.208;6.418;2023-12-20T03:38:55;14.70;;;3.70;;
36291;SDS011;22327;51.208;6.418;2023-12-20T03:41:56;17.23;;;4.05;;
36291;SDS011;22327;51.208;6.418;2023-12-20T03:44:56;14.98;;;4.35;;
36291;SDS011;22327;51.208;6.418;2023-12-20T03:47:57;20.40;;;4.65;;
36291;SDS011;22327;51.208;6.418;2023-12-20T03:50:57;16.63;;;5.43;;
36291;SDS011;22327;51.208;6.418;2023-12-20T03:53:58;19.55;;;4.32;;
36291;SDS011;22327;51.208;6.418;2023-12-20T03:56:58;17.92;;;6.07;;
36291;SDS011;22327;51.208;6.418;2023-12-20T03:59:59;18.77;;;4.20;;
36291;SDS011;22327;51.208;6.418;2023-12-20T04:02:59;19.33;;;3.97;;
36291;SDS011;22327;51.208;6.418;2023-12-20T04:06:00;22.80;;;4.30;;
36291;SDS011;22327;51.208;6.418;2023-12-20T04:09:01;21.35;;;4.63;;
36291;SDS011;22327;51.208;6.418;2023-12-20T04:12:02;14.63;;;5.32;;
36291;SDS011;22327;51.208;6.418;2023-12-20T04:15:02;21.67;;;4.63;;
36291;SDS011;22327;51.208;6.418;2023-12-20T04:18:09;18.75;;;4.72;;
36291;SDS011;22327;51.208;6.418;2023-12-20T04:21:10;14.10;;;5.00;;
36291;SDS011;22327;51.208;6.418;2023-12-20T04:24:10;24.35;;;7.10;;
36291;SDS011;22327;51.208;6.418;2023-12-20T04:27:11;20.17;;;5.60;;
36291;SDS011;22327;51.208;6.418;2023-12-20T04:30:11;23.40;;;5.57;;
36291;SDS011;22327;51.208;6.418;2023-12-20T04:33:12;24.15;;;5.03;;
36291;SDS011;22327;51.208;6.418;2023-12-20T04:36:13;21.85;;;5.47;;
36291;SDS011;22327;51.208;6.418;2023-12-20T04:39:13;23.33;;;4.60;;
36291;SDS011;22327;51.208;6.418;2023-12-20T04:42:15;15.80;;;5.13;;
36291;SDS011;22327;51.208;6.418;2023-12-20T04:45:15;19.45;;;5.28;;
36291;SDS011;22327;51.208;6.418;2023-12-20T04:48:16;17.88;;;5.55;;
36291;SDS011;22327;51.208;6.418;2023-12-20T04:51:17;19.75;;;5.63;;
36291;SDS011;22327;51.208;6.418;2023-12-20T04:54:18;13.52;;;4.82;;
36291;SDS011;22327;51.208;6.418;2023-12-20T04:57:18;25.08;;;4.68;;
36291;SDS011;22327;51.208;6.418;2023-12-20T05:00:19;25.88;;;5.00;;
36291;SDS011;22327;51.208;6.418;2023-12-20T05:03:19;20.77;;;4.93;;
36291;SDS011;22327;51.208;6.418;2023-12-20T05:06:20;17.20;;;4.65;;
36291;SDS011;22327;51.208;6.418;2023-12-20T05:09:20;22.63;;;4.93;;
36291;SDS011;22327;51.208;6.418;2023-12-20T05:12:21;23.85;;;6.18;;
36291;SDS011;22327;51.208;6.418;2023-12-20T05:15:21;17.20;;;4.63;;
36291;SDS011;22327;51.208;6.418;2023-12-20T05:18:22;12.07;;;4.47;;
36291;SDS011;22327;51.208;6.418;2023-12-20T05:21:23;17.20;;;5.25;;
36291;SDS011;22327;51.208;6.418;2023-12-20T05:24:23;19.65;;;5.43;;
36291;SDS011;22327;51.208;6.418;2023-12-20T05:27:24;19.70;;;5.53;;
36291;SDS011;22327;51.208;6.418;2023-12-20T05:30:24;21.67;;;5.28;;
36291;SDS011;22327;51.208;6.418;2023-12-20T05:33:24;20.35;;;5.53;;
36291;SDS011;22327;51.208;6.418;2023-12-20T05:36:25;17.95;;;5.80;;
36291;SDS011;22327;51.208;6.418;2023-12-20T05:39:26;13.98;;;5.20;;
36291;SDS011;22327;51.208;6.418;2023-12-20T05:42:26;17.50;;;5.65;;
36291;SDS011;22327;51.208;6.418;2023-12-20T05:45:27;17.35;;;5.85;;
36291;SDS011;22327;51.208;6.418;2023-12-20T05:48:27;15.88;;;5.50;;
36291;SDS011;22327;51.208;6.418;2023-12-20T05:51:28;13.98;;;5.30;;
36291;SDS011;22327;51.208;6.418;2023-12-20T05:54:28;15.95;;;5.70;;
36291;SDS011;22327;51.208;6.418;2023-12-20T05:57:29;14.73;;;4.90;;
36291;SDS011;22327;51.208;6.418;2023-12-20T06:00:30;16.73;;;4.80;;
36291;SDS011;22327;51.208;6.418;2023-12-20T06:03:30;17.10;;;4.93;;
36291;SDS011;22327;51.208;6.418;2023-12-20T06:06:31;13.48;;;4.57;;
36291;SDS011;22327;51.208;6.418;2023-12-20T06:09:31;15.27;;;4.95;;
36291;SDS011;22327;51.208;6.418;2023-12-20T06:12:32;16.95;;;4.57;;
36291;SDS011;22327;51.208;6.418;2023-12-20T06:15:35;14.80;;;4.75;;
36291;SDS011;22327;51.208;6.418;2023-12-20T06:18:36;17.55;;;4.40;;
36291;SDS011;22327;51.208;6.418;2023-12-20T06:21:36;13.57;;;4.22;;
36291;SDS011;22327;51.208;6.418;2023-12-20T06:24:37;18.55;;;4.35;;
36291;SDS011;22327;51.208;6.418;2023-12-20T06:27:37;11.18;;;4.35;;
36291;SDS011;22327;51.208;6.418;2023-12-20T06:30:38;19.00;;;5.22;;
36291;SDS011;22327;51.208;6.418;2023-12-20T06:33:38;14.82;;;4.00;;
36291;SDS011;22327;51.208;6.418;2023-12-20T06:36:41;19.63;;;4.40;;
36291;SDS011;22327;51.208;6.418;2023-12-20T06:39:41;14.13;;;4.40;;
36291;SDS011;22327;51.208;6.418;2023-12-20T06:42:42;12.98;;;4.03;;
36291;SDS011;22327;51.208;6.418;2023-12-20T06:45:42;18.42;;;4.75;;
36291;SDS011;22327;51.208;6.418;2023-12-20T06:48:43;10.55;;;3.33;;
36291;SDS011;22327;51.208;6.418;2023-12-20T06:51:43;17.38;;;3.83;;
36291;SDS011;22327;51.208;6.418;2023-12-20T06:54:44;13.75;;;4.28;;
36291;SDS011;22327;51.208;6.418;2023-12-20T06:57:44;11.88;;;4.07;;
36291;SDS011;22327;51.208;6.418;2023-12-20T07:00:45;16.15;;;3.97;;
36291;SDS011;22327;51.208;6.418;2023-12-20T07:03:45;10.52;;;3.65;;
36291;SDS011;22327;51.208;6.418;2023-12-20T07:06:46;14.70;;;4.30;;
36291;SDS011;22327;51.208;6.418;2023-12-20T07:09:47;7.35;;;3.50;;
36291;SDS011;22327;51.208;6.418;2023-12-20T07:12:47;17.50;;;4.07;;
36291;SDS011;22327;51.208;6.418;2023-12-20T07:15:48;13.80;;;4.22;;
36291;SDS011;22327;51.208;6.418;2023-12-20T07:18:49;14.63;;;4.00;;
36291;SDS011;22327;51.208;6.418;2023-12-20T07:21:49;15.50;;;5.50;;
36291;SDS011;22327;51.208;6.418;2023-12-20T07:24:50;18.85;;;4.32;;
36291;SDS011;22327;51.208;6.418;2023-12-20T07:27:52;13.55;;;4.65;;
36291;SDS011;22327;51.208;6.418;2023-12-20T07:30:52;13.80;;;4.05;;
36291;SDS011;22327;51.208;6.418;2023-12-20T07:33:53;13.95;;;3.97;;
36291;SDS011;22327;51.208;6.418;2023-12-20T07:36:53;16.42;;;4.10;;
36291;SDS011;22327;51.208;6.418;2023-12-20T07:39:54;15.32;;;4.35;;
36291;SDS011;22327;51.208;6.418;2023-12-20T07:42:54;13.63;;;5.18;;
36291;SDS011;22327;51.208;6.418;2023-12-20T07:45:55;14.80;;;4.68;;
36291;SDS011;22327;51.208;6.418;2023-12-20T07:48:55;14.05;;;4.18;;
36291;SDS011;22327;51.208;6.418;2023-12-20T07:51:56;15.25;;;4.40;;
36291;SDS011;22327;51.208;6.418;2023-12-20T07:54:56;15.30;;;3.78;;
36291;SDS011;22327;51.208;6.418;2023-12-20T07:57:57;11.57;;;3.03;;
36291;SDS011;22327;51.208;6.418;2023-12-20T08:00:58;10.18;;;3.22;;
36291;SDS011;22327;51.208;6.418;2023-12-20T08:03:58;12.73;;;3.60;;
36291;SDS011;22327;51.208;6.418;2023-12-20T08:06:59;12.00;;;4.70;;
36291;SDS011;22327;51.208;6.418;2023-12-20T08:10:00;13.05;;;3.60;;
36291;SDS011;22327;51.208;6.418;2023-12-20T08:13:01;10.88;;;3.50;;
36291;SDS011;22327;51.208;6.418;2023-12-20T08:16:01;14.55;;;3.38;;
36291;SDS011;22327;51.208;6.418;2023-12-20T08:19:03;9.75;;;3.10;;
36291;SDS011;22327;51.208;6.418;2023-12-20T08:22:03;6.80;;;3.10;;
36291;SDS011;22327;51.208;6.418;2023-12-20T08:25:04;14.13;;;4.25;;
36291;SDS011;22327;51.208;6.418;2023-12-20T08:28:04;11.38;;;3.67;;
36291;SDS011;22327;51.208;6.418;2023-12-20T08:31:05;14.43;;;4.18;;
36291;SDS011;22327;51.208;6.418;2023-12-20T08:34:06;11.35;;;3.42;;
36291;SDS011;22327;51.208;6.418;2023-12-20T08:37:06;9.35;;;3.10;;
36291;SDS011;22327;51.208;6.418;2023-12-20T08:40:07;12.75;;;2.80;;
36291;SDS011;22327;51.208;6.418;2023-12-20T08:43:08;12.88;;;3.35;;
36291;SDS011;22327;51.208;6.418;2023-12-20T08:46:08;8.63;;;2.70;;
36291;SDS011;22327;51.208;6.418;2023-12-20T08:49:14;9.60;;;2.80;;
36291;SDS011;22327;51.208;6.418;2023-12-20T08:52:15;10.18;;;2.90;;
36291;SDS011;22327;51.208;6.418;2023-12-20T08:55:15;10.05;;;3.15;;
36291;SDS011;22327;51.208;6.418;2023-12-20T08:58:18;14.30;;;2.95;;
36291;SDS011;22327;51.208;6.418;2023-12-20T09:01:18;4.20;;;1.48;;
36291;SDS011;22327;51.208;6.418;2023-12-20T09:04:19;10.70;;;2.55;;
36291;SDS011;22327;51.208;6.418;2023-12-20T09:07:23;10.88;;;2.85;;
36291;SDS011;22327;51.208;6.418;2023-12-20T09:10:24;8.82;;;3.08;;
36291;SDS011;22327;51.208;6.418;2023-12-20T09:13:25;9.15;;;2.90;;
36291;SDS011;22327;51.208;6.418;2023-12-20T09:16:28;15.93;;;2.97;;
36291;SDS011;22327;51.208;6.418;2023-12-20T09:19:29;10.52;;;2.78;;
36291;SDS011;22327;51.208;6.418;2023-12-20T09:22:29;11.43;;;2.78;;
36291;SDS011;22327;51.208;6.418;2023-12-20T09:25:30;12.30;;;3.25;;
36291;SDS011;22327;51.208;6.418;2023-12-20T09:28:31;11.45;;;2.55;;
36291;SDS011;22327;51.208;6.418;2023-12-20T09:31:36;10.30;;;2.60;;
36291;SDS011;22327;51.208;6.418;2023-12-20T09:34:37;9.98;;;2.53;;
36291;SDS011;22327;51.208;6.418;2023-12-20T09:37:37;12.38;;;3.05;;
36291;SDS011;22327;51.208;6.418;2023-12-20T09:40:41;11.30;;;2.38;;
36291;SDS011;22327;51.208;6.418;2023-12-20T09:43:42;12.73;;;2.58;;
36291;SDS011;22327;51.208;6.418;2023-12-20T09:46:43;9.18;;;3.10;;
36291;SDS011;22327;51.208;6.418;2023-12-20T09:49:45;13.85;;;2.30;;
36291;SDS011;22327;51.208;6.418;2023-12-20T09:52:49;13.82;;;2.80;;
36291;SDS011;22327;51.208;6.418;2023-12-20T09:55:51;7.38;;;2.08;;
36291;SDS011;22327;51.208;6.418;2023-12-20T09:58:53;10.32;;;2.85;;
36291;SDS011;22327;51.208;6.418;2023-12-20T10:01:55;9.95;;;2.58;;
36291;SDS011;22327;51.208;6.418;2023-12-20T10:04:56;10.52;;;2.33;;
36291;SDS011;22327;51.208;6.418;2023-12-20T10:07:57;11.68;;;2.80;;
36291;SDS011;22327;51.208;6.418;2023-12-20T10:10:59;14.88;;;4.13;;
36291;SDS011;22327;51.208;6.418;2023-12-20T10:14:03;9.38;;;2.40;;
36291;SDS011;22327;51.208;6.418;2023-12-20T10:17:04;9.95;;;2.13;;
36291;SDS011;22327;51.208;6.418;2023-12-20T10:20:05;11.38;;;2.03;;
36291;SDS011;22327;51.208;6.418;2023-12-20T10:26:12;12.98;;;2.47;;
36291;SDS011;22327;51.208;6.418;2023-12-20T10:29:23;10.13;;;2.67;;
36291;SDS011;22327;51.208;6.418;2023-12-20T10:32:26;12.35;;;2.15;;
36291;SDS011;22327;51.208;6.418;2023-12-20T10:35:27;11.55;;;2.55;;
36291;SDS011;22327;51.208;6.418;2023-12-20T10:38:28;11.50;;;3.08;;
36291;SDS011;22327;51.208;6.418;2023-12-20T10:41:31;8.70;;;2.20;;
36291;SDS011;22327;51.208;6.418;2023-12-20T10:44:32;8.25;;;2.22;;
36291;SDS011;22327;51.208;6.418;2023-12-20T10:47:33;11.05;;;2.85;;
36291;SDS011;22327;51.208;6.418;2023-12-20T10:50:36;9.20;;;2.05;;
36291;SDS011;22327;51.208;6.418;2023-12-20T10:53:38;8.88;;;2.35;;
36291;SDS011;22327;51.208;6.418;2023-12-20T10:56:40;8.38;;;2.28;;
36291;SDS011;22327;51.208;6.418;2023-12-20T10:59:41;7.18;;;1.90;;
36291;SDS011;22327;51.208;6.418;2023-12-20T11:02:45;7.85;;;2.08;;
36291;SDS011;22327;51.208;6.418;2023-12-20T11:05:50;10.90;;;2.25;;
36291;SDS011;22327;51.208;6.418;2023-12-20T11:09:04;12.55;;;2.78;;
36291;SDS011;22327;51.208;6.418;2023-12-20T11:12:35;11.20;;;2.10;;
36291;SDS011;22327;51.208;6.418;2023-12-20T11:15:43;9.30;;;1.92;;
36291;SDS011;22327;51.208;6.418;2023-12-20T11:18:44;10.05;;;2.38;;
36291;SDS011;22327;51.208;6.418;2023-12-20T11:21:45;12.10;;;2.63;;
36291;SDS011;22327;51.208;6.418;2023-12-20T11:24:47;6.70;;;2.00;;
36291;SDS011;22327;51.208;6.418;2023-12-20T11:28:07;7.88;;;2.47;;
36291;SDS011;22327;51.208;6.418;2023-12-20T11:31:09;13.27;;;2.28;;
36291;SDS011;22327;51.208;6.418;2023-12-20T11:34:15;7.68;;;2.50;;
36291;SDS011;22327;51.208;6.418;2023-12-20T11:37:17;9.68;;;2.58;;
36291;SDS011;22327;51.208;6.418;2023-12-20T11:40:20;8.02;;;2.10;;
36291;SDS011;22327;51.208;6.418;2023-12-20T11:43:29;8.60;;;2.28;;
36291;SDS011;22327;51.208;6.418;2023-12-20T11:46:36;8.57;;;2.65;;
36291;SDS011;22327;51.208;6.418;2023-12-20T11:49:37;9.57;;;2.28;;
36291;SDS011;22327;51.208;6.418;2023-12-20T11:52:37;10.25;;;2.10;;
36291;SDS011;22327;51.208;6.418;2023-12-20T11:55:38;10.65;;;3.42;;
36291;SDS011;22327;51.208;6.418;2023-12-20T11:58:38;11.32;;;2.85;;
36291;SDS011;22327;51.208;6.418;2023-12-20T12:01:39;10.85;;;2.50;;
36291;SDS011;22327;51.208;6.418;2023-12-20T12:04:43;8.77;;;2.30;;
36291;SDS011;22327;51.208;6.418;2023-12-20T12:07:43;7.85;;;2.75;;
36291;SDS011;22327;51.208;6.418;2023-12-20T12:10:44;6.30;;;2.10;;
36291;SDS011;22327;51.208;6.418;2023-12-20T12:13:45;9.10;;;2.47;;
36291;SDS011;22327;51.208;6.418;2023-12-20T12:16:46;13.00;;;2.92;;
36291;SDS011;22327;51.208;6.418;2023-12-20T12:19:46;10.15;;;2.70;;
36291;SDS011;22327;51.208;6.418;2023-12-20T12:22:57;9.77;;;2.45;;
36291;SDS011;22327;51.208;6.418;2023-12-20T12:25:58;10.70;;;1.90;;
36291;SDS011;22327;51.208;6.418;2023-12-20T12:28:59;9.93;;;2.22;;
36291;SDS011;22327;51.208;6.418;2023-12-20T12:31:59;10.18;;;4.00;;
36291;SDS011;22327;51.208;6.418;2023-12-20T12:35:02;10.90;;;2.95;;
36291;SDS011;22327;51.208;6.418;2023-12-20T12:38:06;8.27;;;2.28;;
36291;SDS011;22327;51.208;6.418;2023-12-20T12:41:07;11.15;;;2.97;;
36291;SDS011;22327;51.208;6.418;2023-12-20T12:44:10;10.52;;;3.22;;
36291;SDS011;22327;51.208;6.418;2023-12-20T12:47:10;11.95;;;2.90;;
36291;SDS011;22327;51.208;6.418;2023-12-20T12:50:11;12.38;;;3.47;;
36291;SDS011;22327;51.208;6.418;2023-12-20T12:53:11;12.80;;;3.42;;
36291;SDS011;22327;51.208;6.418;2023-12-20T12:56:12;5.20;;;2.53;;
36291;SDS011;22327;51.208;6.418;2023-12-20T12:59:13;13.20;;;3.53;;
36291;SDS011;22327;51.208;6.418;2023-12-20T13:02:14;9.43;;;3.38;;
36291;SDS011;22327;51.208;6.418;2023-12-20T13:05:15;9.82;;;3.38;;
36291;SDS011;22327;51.208;6.418;2023-12-20T13:08:15;7.20;;;2.95;;
36291;SDS011;22327;51.208;6.418;2023-12-20T13:11:16;9.25;;;3.00;;
36291;SDS011;22327;51.208;6.418;2023-12-20T13:14:16;7.45;;;3.67;;
36291;SDS011;22327;51.208;6.418;2023-12-20T13:17:17;8.07;;;3.33;;
36291;SDS011;22327;51.208;6.418;2023-12-20T13:20:17;12.93;;;3.80;;
36291;SDS011;22327;51.208;6.418;2023-12-20T13:23:18;10.27;;;3.28;;
36291;SDS011;22327;51.208;6.418;2023-12-20T13:26:18;7.50;;;3.05;;
36291;SDS011;22327;51.208;6.418;2023-12-20T13:29:19;16.02;;;3.58;;
36291;SDS011;22327;51.208;6.418;2023-12-20T13:32:19;7.53;;;3.70;;
36291;SDS011;22327;51.208;6.418;2023-12-20T13:35:20;7.53;;;3.25;;
36291;SDS011;22327;51.208;6.418;2023-12-20T13:38:20;13.70;;;3.70;;
36291;SDS011;22327;51.208;6.418;2023-12-20T13:41:21;7.90;;;3.10;;
36291;SDS011;22327;51.208;6.418;2023-12-20T13:44:21;10.43;;;4.15;;
36291;SDS011;22327;51.208;6.418;2023-12-20T13:47:22;8.98;;;3.50;;
36291;SDS011;22327;51.208;6.418;2023-12-20T13:50:22;10.30;;;3.90;;
36291;SDS011;22327;51.208;6.418;2023-12-20T13:53:23;9.73;;;3.28;;
36291;SDS011;22327;51.208;6.418;2023-12-20T13:56:23;11.40;;;3.30;;
36291;SDS011;22327;51.208;6.418;2023-12-20T13:59:25;11.43;;;3.65;;
36291;SDS011;22327;51.208;6.418;2023-12-20T14:02:26;9.07;;;3.67;;
36291;SDS011;22327;51.208;6.418;2023-12-20T14:05:26;12.93;;;3.78;;
36291;SDS011;22327;51.208;6.418;2023-12-20T14:08:28;10.23;;;3.30;;
36291;SDS011;22327;51.208;6.418;2023-12-20T14:11:28;9.40;;;3.13;;
36291;SDS011;22327;51.208;6.418;2023-12-20T14:14:29;7.45;;;3.08;;
36291;SDS011;22327;51.208;6.418;2023-12-20T14:17:29;11.48;;;3.45;;
36291;SDS011;22327;51.208;6.418;2023-12-20T14:20:31;9.68;;;3.05;;
36291;SDS011;22327;51.208;6.418;2023-12-20T14:23:34;8.07;;;3.08;;
36291;SDS011;22327;51.208;6.418;2023-12-20T14:26:35;9.20;;;2.90;;
36291;SDS011;22327;51.208;6.418;2023-12-20T14:29:37;10.05;;;2.80;;
36291;SDS011;22327;51.208;6.418;2023-12-20T14:32:37;9.27;;;2.97;;
36291;SDS011;22327;51.208;6.418;2023-12-20T14:35:38;12.25;;;3.20;;
36291;SDS011;22327;51.208;6.418;2023-12-20T14:38:39;10.23;;;3.42;;
36291;SDS011;22327;51.208;6.418;2023-12-20T14:41:39;5.82;;;2.92;;
36291;SDS011;22327;51.208;6.418;2023-12-20T14:44:40;16.55;;;3.58;;
36291;SDS011;22327;51.208;6.418;2023-12-20T14:47:42;9.00;;;3.72;;
36291;SDS011;22327;51.208;6.418;2023-12-20T14:50:43;11.13;;;3.30;;
36291;SDS011;22327;51.208;6.418;2023-12-20T14:53:44;9.82;;;3.55;;
36291;SDS011;22327;51.208;6.418;2023-12-20T14:56:44;12.60;;;3.42;;
36291;SDS011;22327;51.208;6.418;2023-12-20T14:59:46;10.18;;;3.30;;
36291;SDS011;22327;51.208;6.418;2023-12-20T15:02:47;11.68;;;4.47;;
36291;SDS011;22327;51.208;6.418;2023-12-20T15:05:47;9.18;;;3.15;;
36291;SDS011;22327;51.208;6.418;2023-12-20T15:08:48;6.63;;;2.97;;
36291;SDS011;22327;51.208;6.418;2023-12-20T15:11:48;12.98;;;3.55;;
36291;SDS011;22327;51.208;6.418;2023-12-20T15:14:49;9.50;;;3.03;;
36291;SDS011;22327;51.208;6.418;2023-12-20T15:17:49;7.25;;;3.00;;
36291;SDS011;22327;51.208;6.418;2023-12-20T15:20:50;9.73;;;2.97;;
36291;SDS011;22327;51.208;6.418;2023-12-20T15:23:50;6.22;;;2.42;;
36291;SDS011;22327;51.208;6.418;2023-12-20T15:26:54;9.55;;;2.88;;
36291;SDS011;22327;51.208;6.418;2023-12-20T15:29:55;12.10;;;3.30;;
36291;SDS011;22327;51.208;6.418;2023-12-20T15:32:56;8.07;;;3.25;;
36291;SDS011;22327;51.208;6.418;2023-12-20T15:35:57;8.75;;;3.22;;
36291;SDS011;22327;51.208;6.418;2023-12-20T15:38:57;8.98;;;2.95;;
36291;SDS011;22327;51.208;6.418;2023-12-20T15:41:58;13.93;;;6.10;;
36291;SDS011;22327;51.208;6.418;2023-12-20T15:44:58;15.95;;;7.63;;
36291;SDS011;22327;51.208;6.418;2023-12-20T15:47:59;13.05;;;5.57;;
36291;SDS011;22327;51.208;6.418;2023-12-20T15:51:03;15.60;;;6.00;;
36291;SDS011;22327;51.208;6.418;2023-12-20T15:54:07;12.73;;;4.95;;
36291;SDS011;22327;51.208;6.418;2023-12-20T15:57:08;14.85;;;6.85;;
36291;SDS011;22327;51.208;6.418;2023-12-20T16:00:10;15.10;;;6.97;;
36291;SDS011;22327;51.208;6.418;2023-12-20T16:03:10;13.45;;;4.45;;
36291;SDS011;22327;51.208;6.418;2023-12-20T16:06:11;22.30;;;10.00;;
36291;SDS011;22327;51.208;6.418;2023-12-20T16:09:12;13.25;;;6.43;;
36291;SDS011;22327;51.208;6.418;2023-12-20T16:12:13;14.68;;;6.18;;
36291;SDS011;22327;51.208;6.418;2023-12-20T16:15:13;14.70;;;6.18;;
36291;SDS011;22327;51.208;6.418;2023-12-20T16:18:14;13.65;;;5.32;;
36291;SDS011;22327;51.208;6.418;2023-12-20T16:21:14;21.60;;;9.45;;
36291;SDS011;22327;51.208;6.418;2023-12-20T16:24:15;13.85;;;5.70;;
36291;SDS011;22327;51.208;6.418;2023-12-20T16:27:15;12.57;;;5.50;;
36291;SDS011;22327;51.208;6.418;2023-12-20T16:30:16;13.93;;;6.47;;
36291;SDS011;22327;51.208;6.418;2023-12-20T16:33:16;17.45;;;7.63;;
36291;SDS011;22327;51.208;6.418;2023-12-20T16:36:17;12.60;;;4.70;;
36291;SDS011;22327;51.208;6.418;2023-12-20T16:39:18;13.73;;;5.93;;
36291;SDS011;22327;51.208;6.418;2023-12-20T16:42:20;10.23;;;5.82;;
36291;SDS011;22327;51.208;6.418;2023-12-20T16:45:20;17.92;;;7.03;;
36291;SDS011;22327;51.208;6.418;2023-12-20T16:48:21;14.73;;;7.22;;
36291;SDS011;22327;51.208;6.418;2023-12-20T16:51:22;15.30;;;7.82;;
36291;SDS011;22327;51.208;6.418;2023-12-20T16:54:23;17.90;;;7.18;;
36291;SDS011;22327;51.208;6.418;2023-12-20T16:57:23;14.45;;;6.68;;
36291;SDS011;22327;51.208;6.418;2023-12-20T17:00:24;14.18;;;6.40;;
36291;SDS011;22327;51.208;6.418;2023-12-20T17:03:26;15.52;;;6.35;;
36291;SDS011;22327;51.208;6.418;2023-12-20T17:06:27;19.52;;;8.85;;
36291;SDS011;22327;51.208;6.418;2023-12-20T17:09:28;15.90;;;6.90;;
36291;SDS011;22327;51.208;6.418;2023-12-20T17:12:28;17.00;;;7.95;;
36291;SDS011;22327;51.208;6.418;2023-12-20T17:15:29;17.75;;;7.30;;
36291;SDS011;22327;51.208;6.418;2023-12-20T17:18:29;17.88;;;8.38;;
36291;SDS011;22327;51.208;6.418;2023-12-20T17:21:30;17.13;;;7.32;;
36291;SDS011;22327;51.208;6.418;2023-12-20T17:24:31;19.30;;;8.35;;
36291;SDS011;22327;51.208;6.418;2023-12-20T17:27:31;18.45;;;6.00;;
36291;SDS011;22327;51.208;6.418;2023-12-20T17:30:32;14.75;;;7.35;;
36291;SDS011;22327;51.208;6.418;2023-12-20T17:33:33;23.27;;;10.73;;
36291;SDS011;22327;51.208;6.418;2023-12-20T17:36:33;9.57;;;5.47;;
36291;SDS011;22327;51.208;6.418;2023-12-20T17:39:34;20.60;;;8.25;;
36291;SDS011;22327;51.208;6.418;2023-12-20T17:42:35;20.65;;;8.82;;
36291;SDS011;22327;51.208;6.418;2023-12-20T17:45:36;14.45;;;7.22;;
36291;SDS011;22327;51.208;6.418;2023-12-20T17:48:37;12.38;;;4.78;;
36291;SDS011;22327;51.208;6.418;2023-12-20T17:51:38;11.32;;;4.78;;
36291;SDS011;22327;51.208;6.418;2023-12-20T17:54:38;14.55;;;5.55;;
36291;SDS011;22327;51.208;6.418;2023-12-20T17:57:39;12.00;;;4.78;;
36291;SDS011;22327;51.208;6.418;2023-12-20T18:00:40;14.00;;;5.65;;